createdAt,value
2023-11-28T00:03:14.498Z,79.67
2023-11-28T00:07:04.345Z,79.55
2023-11-28T00:10:22.201Z,79.42
2023-11-28T00:14:11.746Z,79.45
2023-11-28T00:18:01.533Z,78.85
2023-11-28T00:21:52.403Z,78.80
2023-11-28T00:25:42.046Z,79.01
2023-11-28T00:29:31.613Z,78.99
2023-11-28T00:33:21.164Z,79.20
2023-11-28T00:37:00.800Z,79.20
2023-11-28T00:40:50.597Z,79.03
2023-11-28T00:44:32.586Z,78.99
2023-11-28T00:48:22.267Z,79.16
2023-11-28T00:52:12.064Z,79.02
2023-11-28T00:56:01.904Z,79.22
2023-11-28T00:59:51.744Z,78.99
2023-11-28T01:03:42.505Z,79.14
2023-11-28T01:07:32.043Z,79.31
2023-11-28T01:11:20.594Z,79.55
2023-11-28T01:15:10.332Z,79.54
2023-11-28T01:18:59.902Z,79.35
2023-11-28T01:22:49.638Z,78.92
2023-11-28T01:26:39.417Z,78.96
2023-11-28T01:30:29.200Z,79.11
2023-11-28T01:34:18.885Z,79.04
2023-11-28T01:38:01.160Z,78.84
2023-11-28T01:41:51.381Z,78.76
2023-11-28T01:45:13.327Z,79.05
2023-11-28T01:49:02.794Z,79.10
2023-11-28T01:52:52.369Z,78.81
2023-11-28T01:56:41.869Z,78.86
2023-11-28T02:00:31.409Z,78.73
2023-11-28T02:04:21.150Z,78.84
2023-11-28T02:08:10.836Z,78.96
2023-11-28T02:12:00.636Z,78.76
2023-11-28T02:15:50.345Z,78.35
2023-11-28T02:19:39.975Z,78.51
2023-11-28T02:23:29.681Z,78.45
2023-11-28T02:27:25.105Z,78.33
2023-11-28T02:31:14.725Z,78.02
2023-11-28T02:35:14.455Z,77.99
2023-11-28T02:39:00.103Z,78.18
2023-11-28T02:42:49.747Z,78.40
2023-11-28T02:46:24.785Z,78.03
2023-11-28T02:50:14.463Z,77.87
2023-11-28T02:54:04.092Z,78.03
2023-11-28T02:57:53.677Z,78.14
2023-11-28T03:01:43.421Z,77.86
2023-11-28T03:05:33.187Z,78.00
2023-11-28T03:09:22.725Z,77.97
2023-11-28T03:13:11.013Z,77.71
2023-11-28T03:17:01.043Z,77.58
2023-11-28T03:20:50.758Z,78.01
2023-11-28T03:24:40.120Z,78.03
2023-11-28T03:28:29.827Z,77.67
2023-11-28T03:32:20.105Z,77.89
2023-11-28T03:36:09.941Z,78.07
2023-11-28T03:39:34.323Z,78.31
2023-11-28T03:43:06.456Z,78.14
2023-11-28T03:46:56.977Z,78.25
2023-11-28T03:50:46.640Z,78.02
2023-11-28T03:54:18.410Z,78.00
2023-11-28T03:58:08.129Z,77.97
2023-11-28T04:01:57.954Z,77.93
2023-11-28T04:05:40.583Z,77.85
2023-11-28T04:09:30.265Z,77.99
2023-11-28T04:13:20.024Z,77.93
2023-11-28T04:17:09.758Z,77.75
2023-11-28T04:20:58.137Z,78.04
2023-11-28T04:24:38.667Z,78.26
2023-11-28T04:28:21.539Z,77.91
2023-11-28T04:32:20.142Z,77.86
2023-11-28T04:36:09.802Z,78.07
2023-11-28T04:39:59.391Z,77.73
2023-11-28T04:43:48.854Z,77.87
2023-11-28T04:47:38.547Z,77.95
2023-11-28T04:51:28.190Z,78.09
2023-11-28T04:55:17.955Z,77.87
2023-11-28T04:59:07.515Z,77.97
2023-11-28T05:02:57.088Z,77.96
2023-11-28T05:06:47.815Z,77.85
2023-11-28T05:10:37.350Z,77.89
2023-11-28T05:14:26.900Z,77.89
2023-11-28T05:18:16.434Z,77.74
2023-11-28T05:21:56.655Z,77.54
2023-11-28T05:25:46.227Z,77.49
2023-11-28T05:29:36.099Z,77.43
2023-11-28T05:33:15.845Z,77.15
2023-11-28T05:37:05.583Z,77.20
2023-11-28T05:40:55.879Z,77.17
2023-11-28T05:44:31.033Z,77.51
2023-11-28T05:48:20.478Z,77.59
2023-11-28T05:52:10.410Z,77.51
2023-11-28T05:56:00.223Z,77.34
2023-11-28T05:59:49.710Z,77.53
2023-11-28T06:03:39.650Z,77.79
2023-11-28T06:07:19.612Z,77.22
2023-11-28T06:11:09.436Z,77.14
2023-11-28T06:14:41.823Z,77.20
2023-11-28T06:18:31.540Z,76.95
2023-11-28T06:22:20.921Z,76.87
2023-11-28T06:26:10.467Z,76.75
2023-11-28T06:29:59.951Z,76.82
2023-11-28T06:33:49.467Z,76.92
2023-11-28T06:37:38.971Z,77.11
2023-11-28T06:41:28.863Z,76.87
2023-11-28T06:45:01.007Z,76.89
2023-11-28T06:48:50.909Z,77.08
2023-11-28T06:52:40.607Z,76.98
2023-11-28T06:56:30.255Z,76.69
2023-11-28T07:00:19.793Z,77.04
2023-11-28T07:04:09.355Z,76.51
2023-11-28T07:07:51.632Z,76.41
2023-11-28T07:11:42.192Z,76.15
2023-11-28T07:15:31.717Z,76.53
2023-11-28T07:19:03.109Z,75.95
2023-11-28T07:22:41.368Z,76.10
2023-11-28T07:26:30.913Z,75.95
2023-11-28T07:30:10.503Z,75.52
2023-11-28T07:34:00.045Z,75.30
2023-11-28T07:37:49.666Z,75.23
2023-11-28T07:41:39.299Z,74.78
2023-11-28T07:45:06.298Z,75.27
2023-11-28T07:48:41.162Z,74.45
2023-11-28T07:52:19.750Z,74.57
2023-11-28T07:55:54.953Z,74.44
2023-11-28T07:59:34.399Z,73.99
2023-11-28T08:03:23.772Z,73.68
2023-11-28T08:07:13.740Z,73.64
2023-11-28T08:10:53.772Z,72.91
2023-11-28T08:14:43.355Z,72.36
2023-11-28T08:18:37.431Z,72.32
2023-11-28T08:22:29.490Z,72.12
2023-11-28T08:26:19.088Z,72.18
2023-11-28T08:30:07.771Z,72.03
2023-11-28T08:33:32.591Z,71.35
2023-11-28T08:37:22.345Z,71.79
2023-11-28T08:41:12.282Z,71.61
2023-11-28T08:45:01.875Z,71.53
2023-11-28T08:48:51.828Z,71.03
2023-11-28T08:52:41.720Z,71.03
2023-11-28T08:56:31.298Z,70.79
2023-11-28T09:00:21.073Z,70.76
2023-11-28T09:04:11.744Z,70.60
2023-11-28T09:08:01.370Z,70.49
2023-11-28T09:11:50.996Z,70.48
2023-11-28T09:15:40.693Z,70.68
2023-11-28T09:19:30.293Z,70.32
2023-11-28T09:23:19.945Z,69.47
2023-11-28T09:26:58.374Z,68.60
2023-11-28T09:30:48.239Z,68.09
2023-11-28T09:34:37.951Z,68.47
2023-11-28T09:38:28.738Z,68.50
2023-11-28T09:42:18.591Z,68.52
2023-11-28T09:46:08.462Z,68.01
2023-11-28T09:50:00.761Z,67.40
2023-11-28T09:53:50.281Z,67.34
2023-11-28T09:57:33.986Z,67.29
2023-11-28T10:01:16.834Z,67.68
2023-11-28T10:05:06.616Z,67.58
2023-11-28T10:08:56.314Z,67.11
2023-11-28T10:12:45.843Z,67.30
2023-11-28T10:16:34.525Z,67.06
2023-11-28T10:20:29.603Z,67.25
2023-11-28T10:24:19.448Z,66.83
2023-11-28T10:28:08.988Z,67.61
2023-11-28T10:31:59.268Z,68.36
2023-11-28T10:35:53.259Z,68.41
2023-11-28T10:39:42.846Z,68.62
2023-11-28T10:43:32.525Z,68.80
2023-11-28T10:47:22.139Z,69.15
2023-11-28T10:51:11.746Z,69.41
2023-11-28T10:54:57.947Z,69.02
2023-11-28T10:58:56.457Z,69.05
2023-11-28T11:02:46.040Z,69.41
2023-11-28T11:06:35.649Z,69.88
2023-11-28T11:10:25.388Z,70.30
2023-11-28T11:14:26.968Z,70.00
2023-11-28T11:18:24.267Z,69.97
2023-11-28T11:22:19.677Z,69.92
2023-11-28T11:26:09.432Z,69.95
2023-11-28T11:30:07.760Z,69.92
2023-11-28T11:33:57.297Z,69.45
2023-11-28T11:37:46.913Z,69.61
2023-11-28T11:41:36.602Z,69.92
2023-11-28T11:45:31.900Z,69.65
2023-11-28T11:49:27.238Z,69.46
2023-11-28T11:53:16.846Z,69.36
2023-11-28T11:57:06.623Z,69.71
2023-11-28T12:00:57.341Z,69.08
2023-11-28T12:04:46.883Z,69.37
2023-11-28T12:08:36.506Z,68.99
2023-11-28T12:12:26.026Z,69.30
2023-11-28T12:16:15.559Z,68.57
2023-11-28T12:20:05.164Z,68.70
2023-11-28T12:23:44.530Z,67.76
2023-11-28T12:27:34.305Z,68.17
2023-11-28T12:31:24.128Z,68.14
2023-11-28T12:35:13.589Z,68.74
2023-11-28T12:39:03.261Z,68.47
2023-11-28T12:42:52.848Z,68.67
2023-11-28T12:46:42.720Z,68.34
2023-11-28T12:50:32.539Z,68.48
2023-11-28T12:54:22.084Z,68.05
2023-11-28T12:58:11.677Z,68.44
2023-11-28T13:02:01.483Z,68.32
2023-11-28T13:05:41.963Z,68.60
2023-11-28T13:09:16.768Z,68.64
2023-11-28T13:13:12.345Z,69.10
2023-11-28T13:17:08.328Z,69.04
2023-11-28T13:20:56.622Z,68.65
2023-11-28T13:24:46.147Z,68.74
2023-11-28T13:28:35.634Z,69.18
2023-11-28T13:32:24.991Z,69.58
2023-11-28T13:36:14.739Z,69.36
2023-11-28T13:40:04.548Z,69.51
2023-11-28T13:43:54.164Z,69.61
2023-11-28T13:47:43.831Z,69.85
2023-11-28T13:51:33.424Z,70.17
2023-11-28T13:55:22.865Z,70.45
2023-11-28T13:59:12.261Z,70.58
2023-11-28T14:03:01.981Z,71.20
2023-11-28T14:06:51.806Z,71.91
2023-11-28T14:10:41.324Z,72.02
2023-11-28T14:14:42.798Z,72.25
2023-11-28T14:18:39.994Z,72.41
2023-11-28T14:22:29.162Z,72.64
2023-11-28T14:26:18.804Z,72.74
2023-11-28T14:30:08.483Z,72.68
2023-11-28T14:33:58.018Z,72.85
2023-11-28T14:37:47.750Z,73.09
2023-11-28T14:41:37.425Z,73.28
2023-11-28T14:45:27.070Z,73.20
2023-11-28T14:49:18.279Z,73.22
2023-11-28T14:53:11.940Z,73.02
2023-11-28T14:57:02.608Z,73.10
2023-11-28T15:00:52.535Z,72.95
2023-11-28T15:04:43.183Z,72.79
2023-11-28T15:08:33.532Z,72.85
2023-11-28T15:12:23.349Z,73.36
2023-11-28T15:16:12.998Z,73.84
2023-11-28T15:19:56.341Z,74.21
2023-11-28T15:23:47.022Z,74.85
2023-11-28T15:27:36.623Z,75.24
2023-11-28T15:31:26.403Z,75.40
2023-11-28T15:35:17.068Z,75.98
2023-11-28T15:39:06.415Z,76.15
2023-11-28T15:42:59.363Z,76.35
2023-11-28T15:46:49.684Z,77.32
2023-11-28T15:50:39.240Z,77.28
2023-11-28T15:54:28.879Z,77.61
2023-11-28T15:58:19.193Z,77.94
2023-11-28T16:02:02.515Z,78.35
2023-11-28T16:05:52.255Z,78.74
2023-11-28T16:09:42.667Z,79.31
2023-11-28T16:13:32.084Z,79.37
2023-11-28T16:17:21.803Z,79.74
2023-11-28T16:21:12.157Z,79.91
2023-11-28T16:25:01.638Z,79.61
2023-11-28T16:29:19.428Z,79.72
2023-11-28T16:33:49.820Z,80.65
2023-11-28T16:38:19.733Z,81.09
2023-11-28T16:42:11.578Z,81.43
2023-11-28T16:46:01.112Z,81.25
2023-11-28T16:49:50.656Z,81.60
2023-11-28T16:53:43.445Z,81.74
2023-11-28T16:57:33.037Z,81.88
2023-11-28T17:01:22.616Z,82.24
2023-11-28T17:05:12.119Z,82.19
2023-11-28T17:09:01.614Z,81.95
2023-11-28T17:12:51.353Z,81.98
2023-11-28T17:16:39.995Z,81.81
2023-11-28T17:20:29.084Z,81.96
2023-11-28T17:24:13.032Z,81.79
2023-11-28T17:28:02.604Z,82.22
2023-11-28T17:31:52.001Z,82.04
2023-11-28T17:35:44.187Z,81.66
2023-11-28T17:39:54.229Z,81.44
2023-11-28T17:43:43.749Z,81.81
2023-11-28T17:47:33.359Z,82.08
2023-11-28T17:51:23.255Z,82.31
2023-11-28T17:55:12.864Z,82.25
2023-11-28T17:59:01.954Z,82.36
2023-11-28T18:02:51.454Z,82.93
2023-11-28T18:06:40.987Z,83.23
2023-11-28T18:10:30.532Z,83.43
2023-11-28T18:14:20.242Z,83.68
2023-11-28T18:18:11.092Z,83.82
2023-11-28T18:22:00.680Z,83.74
2023-11-28T18:25:50.364Z,83.99
2023-11-28T18:29:39.600Z,84.26
2023-11-28T18:33:29.530Z,84.32
2023-11-28T18:37:21.629Z,84.56
2023-11-28T18:41:11.234Z,84.69
2023-11-28T18:45:00.752Z,84.69
2023-11-28T18:48:50.469Z,84.32
2023-11-28T18:52:40.001Z,84.82
2023-11-28T18:56:29.919Z,84.58
2023-11-28T19:00:21.931Z,84.48
2023-11-28T19:04:11.703Z,84.85
2023-11-28T19:08:01.417Z,84.55
2023-11-28T19:11:51.443Z,84.58
2023-11-28T19:15:41.018Z,84.36
2023-11-28T19:19:23.183Z,84.70
2023-11-28T19:23:12.944Z,84.44
2023-11-28T19:27:05.681Z,85.07
2023-11-28T19:30:56.128Z,84.16
2023-11-28T19:34:35.663Z,84.57
2023-11-28T19:38:25.215Z,84.70
2023-11-28T19:42:15.724Z,84.68
2023-11-28T19:46:05.756Z,84.57
2023-11-28T19:49:55.885Z,84.66
2023-11-28T19:53:45.616Z,84.24
2023-11-28T19:57:35.305Z,84.78
2023-11-28T20:01:24.960Z,84.45
2023-11-28T20:05:35.257Z,84.65
2023-11-28T20:09:24.845Z,84.59
2023-11-28T20:13:14.367Z,84.90
2023-11-28T20:17:03.837Z,84.81
2023-11-28T20:20:53.313Z,84.60
2023-11-28T20:24:43.265Z,84.36
2023-11-28T20:28:32.794Z,84.48
2023-11-28T20:32:22.455Z,84.97
2023-11-28T20:36:11.899Z,84.85
2023-11-28T20:40:01.576Z,84.86
2023-11-28T20:43:51.177Z,84.85
2023-11-28T20:47:40.981Z,84.80
2023-11-28T20:51:30.610Z,84.80
2023-11-28T20:55:20.059Z,84.84
2023-11-28T20:59:09.614Z,84.98
2023-11-28T21:02:59.505Z,85.31
2023-11-28T21:06:48.992Z,85.13
2023-11-28T21:10:38.790Z,85.10
2023-11-28T21:14:29.276Z,85.27
2023-11-28T21:18:19.194Z,84.86
2023-11-28T21:22:08.773Z,85.34
2023-11-28T21:25:58.623Z,85.18
2023-11-28T21:29:48.140Z,85.01
2023-11-28T21:33:37.745Z,84.99
2023-11-28T21:37:22.566Z,85.24
2023-11-28T21:41:12.276Z,85.40
2023-11-28T21:45:02.683Z,85.25
2023-11-28T21:48:52.291Z,85.18
2023-11-28T21:52:41.987Z,85.54
2023-11-28T21:56:33.506Z,85.61
2023-11-28T22:00:04.050Z,85.79
2023-11-28T22:03:42.381Z,86.03
2023-11-28T22:07:32.303Z,86.40
2023-11-28T22:11:22.146Z,86.56
2023-11-28T22:15:11.886Z,86.56
2023-11-28T22:19:01.504Z,85.15
2023-11-28T22:22:51.139Z,85.09
2023-11-28T22:26:40.945Z,84.78
2023-11-28T22:30:30.540Z,84.39
2023-11-28T22:34:20.125Z,84.28
2023-11-28T22:38:02.519Z,84.44
2023-11-28T22:41:52.274Z,84.39
2023-11-28T22:45:41.828Z,84.75
2023-11-28T22:49:31.593Z,83.97
2023-11-28T22:53:21.440Z,84.69
2023-11-28T22:57:11.438Z,85.09
2023-11-28T23:00:54.973Z,85.00
2023-11-28T23:04:44.601Z,84.95
2023-11-28T23:08:26.824Z,85.18
2023-11-28T23:12:16.459Z,85.71
2023-11-28T23:16:06.266Z,85.98
2023-11-28T23:19:55.800Z,85.83
2023-11-28T23:23:45.532Z,86.39
2023-11-28T23:27:35.123Z,86.09
2023-11-28T23:31:24.825Z,86.09
2023-11-28T23:35:14.349Z,86.38
2023-11-28T23:39:04.020Z,86.74
2023-11-28T23:42:54.771Z,86.85
2023-11-28T23:46:44.447Z,87.02
2023-11-28T23:50:34.104Z,87.05
2023-11-28T23:54:16.292Z,86.51
2023-11-28T23:58:06.080Z,87.18
